sensor_id;sensor_type;location;lat;lon;timestamp;P1;durP1;ratioP1;P2;durP2;ratioP2
8038;SDS011;4062;49.844;8.120;2022-12-28T00:00:32;7.13;;;5.27;;
8038;SDS011;4062;49.844;8.120;2022-12-28T00:02:32;4.90;;;4.00;;
8038;SDS011;4062;49.844;8.120;2022-12-28T00:04:33;4.70;;;3.80;;
8038;SDS011;4062;49.844;8.120;2022-12-28T00:06:33;8.83;;;5.17;;
8038;SDS011;4062;49.844;8.120;2022-12-28T00:08:34;8.03;;;4.50;;
8038;SDS011;4062;49.844;8.120;2022-12-28T00:10:34;4.03;;;3.37;;
8038;SDS011;4062;49.844;8.120;2022-12-28T00:12:35;5.37;;;3.53;;
8038;SDS011;4062;49.844;8.120;2022-12-28T00:14:35;5.57;;;3.90;;
8038;SDS011;4062;49.844;8.120;2022-12-28T00:16:39;6.10;;;4.47;;
8038;SDS011;4062;49.844;8.120;2022-12-28T00:18:40;7.10;;;4.90;;
8038;SDS011;4062;49.844;8.120;2022-12-28T00:20:41;5.60;;;4.67;;
8038;SDS011;4062;49.844;8.120;2022-12-28T00:22:41;8.20;;;4.25;;
8038;SDS011;4062;49.844;8.120;2022-12-28T00:24:41;5.63;;;4.20;;
8038;SDS011;4062;49.844;8.120;2022-12-28T00:26:42;4.70;;;4.20;;
8038;SDS011;4062;49.844;8.120;2022-12-28T00:28:46;5.13;;;4.60;;
8038;SDS011;4062;49.844;8.120;2022-12-28T00:30:49;6.43;;;4.03;;
8038;SDS011;4062;49.844;8.120;2022-12-28T00:32:51;4.83;;;4.10;;
8038;SDS011;4062;49.844;8.120;2022-12-28T00:34:52;5.10;;;4.20;;
8038;SDS011;4062;49.844;8.120;2022-12-28T00:36:52;7.63;;;4.67;;
8038;SDS011;4062;49.844;8.120;2022-12-28T00:38:53;5.53;;;3.90;;
8038;SDS011;4062;49.844;8.120;2022-12-28T00:40:54;6.73;;;4.20;;
8038;SDS011;4062;49.844;8.120;2022-12-28T00:42:54;4.60;;;4.20;;
8038;SDS011;4062;49.844;8.120;2022-12-28T00:44:54;5.07;;;3.90;;
8038;SDS011;4062;49.844;8.120;2022-12-28T00:46:55;6.27;;;4.13;;
8038;SDS011;4062;49.844;8.120;2022-12-28T00:48:55;5.28;;;3.95;;
8038;SDS011;4062;49.844;8.120;2022-12-28T00:51:00;4.50;;;3.60;;
8038;SDS011;4062;49.844;8.120;2022-12-28T00:53:00;5.72;;;4.90;;
8038;SDS011;4062;49.844;8.120;2022-12-28T00:55:01;5.03;;;3.70;;
8038;SDS011;4062;49.844;8.120;2022-12-28T00:57:02;4.47;;;3.70;;
8038;SDS011;4062;49.844;8.120;2022-12-28T00:59:02;4.57;;;3.30;;
8038;SDS011;4062;49.844;8.120;2022-12-28T01:01:12;5.47;;;3.87;;
8038;SDS011;4062;49.844;8.120;2022-12-28T01:03:13;4.03;;;3.60;;
8038;SDS011;4062;49.844;8.120;2022-12-28T01:05:13;3.93;;;3.20;;
8038;SDS011;4062;49.844;8.120;2022-12-28T01:07:15;3.70;;;3.23;;
8038;SDS011;4062;49.844;8.120;2022-12-28T01:09:15;3.53;;;3.23;;
8038;SDS011;4062;49.844;8.120;2022-12-28T01:11:18;4.43;;;2.60;;
8038;SDS011;4062;49.844;8.120;2022-12-28T01:13:19;6.30;;;3.78;;
8038;SDS011;4062;49.844;8.120;2022-12-28T01:15:20;5.00;;;3.80;;
8038;SDS011;4062;49.844;8.120;2022-12-28T01:17:21;2.87;;;2.67;;
8038;SDS011;4062;49.844;8.120;2022-12-28T01:19:21;4.10;;;3.20;;
8038;SDS011;4062;49.844;8.120;2022-12-28T01:21:26;7.30;;;5.00;;
8038;SDS011;4062;49.844;8.120;2022-12-28T01:23:27;4.13;;;3.73;;
8038;SDS011;4062;49.844;8.120;2022-12-28T01:25:27;4.77;;;4.00;;
8038;SDS011;4062;49.844;8.120;2022-12-28T01:27:31;5.67;;;3.40;;
8038;SDS011;4062;49.844;8.120;2022-12-28T01:29:31;4.27;;;2.90;;
8038;SDS011;4062;49.844;8.120;2022-12-28T01:31:33;2.37;;;2.27;;
8038;SDS011;4062;49.844;8.120;2022-12-28T01:33:34;4.63;;;3.73;;
8038;SDS011;4062;49.844;8.120;2022-12-28T01:35:35;4.67;;;3.67;;
8038;SDS011;4062;49.844;8.120;2022-12-28T01:37:35;5.80;;;3.20;;
8038;SDS011;4062;49.844;8.120;2022-12-28T01:39:36;3.47;;;3.05;;
8038;SDS011;4062;49.844;8.120;2022-12-28T01:41:38;3.03;;;2.73;;
8038;SDS011;4062;49.844;8.120;2022-12-28T01:43:46;5.90;;;3.57;;
8038;SDS011;4062;49.844;8.120;2022-12-28T01:45:48;4.87;;;3.47;;
8038;SDS011;4062;49.844;8.120;2022-12-28T01:47:52;2.30;;;2.13;;
8038;SDS011;4062;49.844;8.120;2022-12-28T01:49:58;3.57;;;2.67;;
8038;SDS011;4062;49.844;8.120;2022-12-28T01:54:00;3.43;;;3.13;;
8038;SDS011;4062;49.844;8.120;2022-12-28T01:56:01;3.93;;;2.93;;
8038;SDS011;4062;49.844;8.120;2022-12-28T01:58:07;5.27;;;2.83;;
8038;SDS011;4062;49.844;8.120;2022-12-28T02:00:12;4.23;;;3.00;;
8038;SDS011;4062;49.844;8.120;2022-12-28T02:02:13;2.60;;;2.40;;
8038;SDS011;4062;49.844;8.120;2022-12-28T02:04:14;2.70;;;2.50;;
8038;SDS011;4062;49.844;8.120;2022-12-28T02:06:14;2.40;;;2.20;;
8038;SDS011;4062;49.844;8.120;2022-12-28T02:08:22;3.27;;;3.00;;
8038;SDS011;4062;49.844;8.120;2022-12-28T02:10:25;3.13;;;2.65;;
8038;SDS011;4062;49.844;8.120;2022-12-28T02:12:26;3.72;;;2.95;;
8038;SDS011;4062;49.844;8.120;2022-12-28T02:14:33;4.88;;;3.40;;
8038;SDS011;4062;49.844;8.120;2022-12-28T02:16:34;2.93;;;2.70;;
8038;SDS011;4062;49.844;8.120;2022-12-28T02:18:35;4.10;;;2.70;;
8038;SDS011;4062;49.844;8.120;2022-12-28T02:20:40;2.97;;;2.53;;
8038;SDS011;4062;49.844;8.120;2022-12-28T02:24:47;2.90;;;2.60;;
8038;SDS011;4062;49.844;8.120;2022-12-28T02:31:33;3.37;;;3.07;;
8038;SDS011;4062;49.844;8.120;2022-12-28T02:33:41;2.50;;;2.30;;
8038;SDS011;4062;49.844;8.120;2022-12-28T02:35:47;2.00;;;1.80;;
8038;SDS011;4062;49.844;8.120;2022-12-28T02:38:05;3.93;;;2.60;;
8038;SDS011;4062;49.844;8.120;2022-12-28T02:40:09;4.03;;;3.07;;
8038;SDS011;4062;49.844;8.120;2022-12-28T02:42:11;3.00;;;2.30;;
8038;SDS011;4062;49.844;8.120;2022-12-28T02:44:13;4.00;;;2.87;;
8038;SDS011;4062;49.844;8.120;2022-12-28T02:46:33;2.63;;;2.40;;
8038;SDS011;4062;49.844;8.120;2022-12-28T02:48:52;2.90;;;2.20;;
8038;SDS011;4062;49.844;8.120;2022-12-28T02:53:26;3.47;;;2.33;;
8038;SDS011;4062;49.844;8.120;2022-12-28T02:58:05;2.93;;;2.73;;
8038;SDS011;4062;49.844;8.120;2022-12-28T03:00:17;3.00;;;2.80;;
8038;SDS011;4062;49.844;8.120;2022-12-28T03:02:25;3.33;;;2.20;;
8038;SDS011;4062;49.844;8.120;2022-12-28T03:04:35;2.83;;;2.50;;
8038;SDS011;4062;49.844;8.120;2022-12-28T03:09:14;1.70;;;1.60;;
8038;SDS011;4062;49.844;8.120;2022-12-28T03:11:16;3.00;;;2.80;;
8038;SDS011;4062;49.844;8.120;2022-12-28T03:13:33;3.00;;;2.60;;
8038;SDS011;4062;49.844;8.120;2022-12-28T03:15:43;2.45;;;2.10;;
8038;SDS011;4062;49.844;8.120;2022-12-28T03:17:45;2.60;;;2.40;;
8038;SDS011;4062;49.844;8.120;2022-12-28T03:20:08;2.03;;;1.93;;
8038;SDS011;4062;49.844;8.120;2022-12-28T03:22:31;1.70;;;1.60;;
8038;SDS011;4062;49.844;8.120;2022-12-28T03:24:54;2.87;;;2.47;;
8038;SDS011;4062;49.844;8.120;2022-12-28T03:27:14;2.00;;;1.90;;
8038;SDS011;4062;49.844;8.120;2022-12-28T03:29:39;1.87;;;1.67;;
8038;SDS011;4062;49.844;8.120;2022-12-28T03:31:59;2.50;;;2.30;;
8038;SDS011;4062;49.844;8.120;2022-12-28T03:34:03;2.50;;;2.30;;
8038;SDS011;4062;49.844;8.120;2022-12-28T03:36:14;2.13;;;1.93;;
8038;SDS011;4062;49.844;8.120;2022-12-28T03:38:20;2.20;;;2.00;;
8038;SDS011;4062;49.844;8.120;2022-12-28T03:40:33;2.90;;;2.17;;
8038;SDS011;4062;49.844;8.120;2022-12-28T03:42:38;2.22;;;1.98;;
8038;SDS011;4062;49.844;8.120;2022-12-28T03:45:04;2.50;;;2.30;;
8038;SDS011;4062;49.844;8.120;2022-12-28T03:47:10;2.80;;;2.10;;
8038;SDS011;4062;49.844;8.120;2022-12-28T03:49:12;2.50;;;2.30;;
8038;SDS011;4062;49.844;8.120;2022-12-28T03:51:13;3.67;;;2.37;;
8038;SDS011;4062;49.844;8.120;2022-12-28T03:53:16;2.30;;;2.10;;
8038;SDS011;4062;49.844;8.120;2022-12-28T03:55:18;2.07;;;1.87;;
8038;SDS011;4062;49.844;8.120;2022-12-28T03:57:20;2.67;;;2.42;;
8038;SDS011;4062;49.844;8.120;2022-12-28T03:59:23;2.60;;;2.40;;
8038;SDS011;4062;49.844;8.120;2022-12-28T04:01:26;2.17;;;2.07;;
8038;SDS011;4062;49.844;8.120;2022-12-28T04:03:28;2.60;;;2.00;;
8038;SDS011;4062;49.844;8.120;2022-12-28T04:05:29;1.80;;;1.57;;
8038;SDS011;4062;49.844;8.120;2022-12-28T04:07:29;2.87;;;2.33;;
8038;SDS011;4062;49.844;8.120;2022-12-28T04:09:32;1.80;;;1.70;;
8038;SDS011;4062;49.844;8.120;2022-12-28T04:11:34;2.23;;;2.03;;
8038;SDS011;4062;49.844;8.120;2022-12-28T04:13:37;1.58;;;1.48;;
8038;SDS011;4062;49.844;8.120;2022-12-28T04:15:53;2.73;;;2.27;;
8038;SDS011;4062;49.844;8.120;2022-12-28T04:17:54;1.60;;;1.43;;
8038;SDS011;4062;49.844;8.120;2022-12-28T04:19:56;3.93;;;1.60;;
8038;SDS011;4062;49.844;8.120;2022-12-28T04:21:59;2.10;;;1.95;;
8038;SDS011;4062;49.844;8.120;2022-12-28T04:24:00;2.30;;;1.20;;
8038;SDS011;4062;49.844;8.120;2022-12-28T04:26:04;2.40;;;2.20;;
8038;SDS011;4062;49.844;8.120;2022-12-28T04:28:05;1.70;;;1.60;;
8038;SDS011;4062;49.844;8.120;2022-12-28T04:30:24;1.70;;;1.60;;
8038;SDS011;4062;49.844;8.120;2022-12-28T04:32:26;3.28;;;2.63;;
8038;SDS011;4062;49.844;8.120;2022-12-28T04:34:26;1.77;;;1.57;;
8038;SDS011;4062;49.844;8.120;2022-12-28T04:36:36;1.93;;;1.73;;
8038;SDS011;4062;49.844;8.120;2022-12-28T04:38:42;1.77;;;1.63;;
8038;SDS011;4062;49.844;8.120;2022-12-28T04:40:45;1.55;;;1.45;;
8038;SDS011;4062;49.844;8.120;2022-12-28T04:42:46;4.03;;;2.53;;
8038;SDS011;4062;49.844;8.120;2022-12-28T04:44:47;1.90;;;1.80;;
8038;SDS011;4062;49.844;8.120;2022-12-28T04:46:47;2.40;;;2.13;;
8038;SDS011;4062;49.844;8.120;2022-12-28T04:48:54;2.47;;;2.13;;
8038;SDS011;4062;49.844;8.120;2022-12-28T04:50:54;2.17;;;2.00;;
8038;SDS011;4062;49.844;8.120;2022-12-28T04:52:56;1.77;;;1.67;;
8038;SDS011;4062;49.844;8.120;2022-12-28T04:54:57;1.60;;;1.50;;
8038;SDS011;4062;49.844;8.120;2022-12-28T04:56:57;2.10;;;1.80;;
8038;SDS011;4062;49.844;8.120;2022-12-28T04:58:58;2.20;;;2.10;;
8038;SDS011;4062;49.844;8.120;2022-12-28T05:01:06;1.90;;;1.70;;
8038;SDS011;4062;49.844;8.120;2022-12-28T05:03:07;1.17;;;1.00;;
8038;SDS011;4062;49.844;8.120;2022-12-28T05:05:08;2.00;;;1.90;;
8038;SDS011;4062;49.844;8.120;2022-12-28T05:07:08;2.03;;;1.92;;
8038;SDS011;4062;49.844;8.120;2022-12-28T05:09:08;3.03;;;2.47;;
8038;SDS011;4062;49.844;8.120;2022-12-28T05:11:13;1.60;;;1.50;;
8038;SDS011;4062;49.844;8.120;2022-12-28T05:13:13;2.17;;;1.98;;
8038;SDS011;4062;49.844;8.120;2022-12-28T05:15:14;1.30;;;1.20;;
8038;SDS011;4062;49.844;8.120;2022-12-28T05:17:14;1.73;;;1.63;;
8038;SDS011;4062;49.844;8.120;2022-12-28T05:19:15;2.87;;;2.13;;
8038;SDS011;4062;49.844;8.120;2022-12-28T05:21:17;1.52;;;1.30;;
8038;SDS011;4062;49.844;8.120;2022-12-28T05:23:17;1.90;;;1.73;;
8038;SDS011;4062;49.844;8.120;2022-12-28T05:25:18;1.37;;;1.17;;
8038;SDS011;4062;49.844;8.120;2022-12-28T05:27:18;1.20;;;1.10;;
8038;SDS011;4062;49.844;8.120;2022-12-28T05:29:19;1.70;;;1.60;;
8038;SDS011;4062;49.844;8.120;2022-12-28T05:31:20;1.40;;;1.30;;
8038;SDS011;4062;49.844;8.120;2022-12-28T05:33:20;1.60;;;1.40;;
8038;SDS011;4062;49.844;8.120;2022-12-28T05:35:21;1.63;;;1.52;;
8038;SDS011;4062;49.844;8.120;2022-12-28T05:37:21;1.90;;;1.70;;
8038;SDS011;4062;49.844;8.120;2022-12-28T05:39:22;1.90;;;1.80;;
8038;SDS011;4062;49.844;8.120;2022-12-28T05:41:24;1.50;;;1.40;;
8038;SDS011;4062;49.844;8.120;2022-12-28T05:43:34;3.50;;;1.53;;
8038;SDS011;4062;49.844;8.120;2022-12-28T05:45:34;1.30;;;1.20;;
8038;SDS011;4062;49.844;8.120;2022-12-28T05:47:35;1.70;;;1.60;;
8038;SDS011;4062;49.844;8.120;2022-12-28T05:49:35;1.17;;;1.17;;
8038;SDS011;4062;49.844;8.120;2022-12-28T05:51:36;1.53;;;1.43;;
8038;SDS011;4062;49.844;8.120;2022-12-28T05:53:37;1.73;;;1.63;;
8038;SDS011;4062;49.844;8.120;2022-12-28T05:55:40;1.70;;;1.60;;
8038;SDS011;4062;49.844;8.120;2022-12-28T05:57:42;1.13;;;1.03;;
8038;SDS011;4062;49.844;8.120;2022-12-28T05:59:42;0.93;;;0.93;;
8038;SDS011;4062;49.844;8.120;2022-12-28T06:01:43;1.40;;;1.30;;
8038;SDS011;4062;49.844;8.120;2022-12-28T06:03:44;1.40;;;1.30;;
8038;SDS011;4062;49.844;8.120;2022-12-28T06:05:46;1.03;;;1.03;;
8038;SDS011;4062;49.844;8.120;2022-12-28T06:07:50;2.00;;;1.80;;
8038;SDS011;4062;49.844;8.120;2022-12-28T06:09:50;1.40;;;1.30;;
8038;SDS011;4062;49.844;8.120;2022-12-28T06:11:51;1.67;;;1.43;;
8038;SDS011;4062;49.844;8.120;2022-12-28T06:13:58;1.83;;;1.67;;
8038;SDS011;4062;49.844;8.120;2022-12-28T06:16:03;1.38;;;1.27;;
8038;SDS011;4062;49.844;8.120;2022-12-28T06:18:04;0.83;;;0.83;;
8038;SDS011;4062;49.844;8.120;2022-12-28T06:20:05;1.30;;;1.20;;
8038;SDS011;4062;49.844;8.120;2022-12-28T06:22:05;3.30;;;1.53;;
8038;SDS011;4062;49.844;8.120;2022-12-28T06:24:06;0.70;;;0.70;;
8038;SDS011;4062;49.844;8.120;2022-12-28T06:26:14;1.73;;;1.60;;
8038;SDS011;4062;49.844;8.120;2022-12-28T06:28:15;1.80;;;1.70;;
8038;SDS011;4062;49.844;8.120;2022-12-28T06:30:16;0.80;;;0.80;;
8038;SDS011;4062;49.844;8.120;2022-12-28T06:32:16;0.93;;;0.90;;
8038;SDS011;4062;49.844;8.120;2022-12-28T06:34:17;1.20;;;1.13;;
8038;SDS011;4062;49.844;8.120;2022-12-28T06:36:19;1.37;;;1.27;;
8038;SDS011;4062;49.844;8.120;2022-12-28T06:38:19;1.40;;;1.30;;
8038;SDS011;4062;49.844;8.120;2022-12-28T06:40:23;1.00;;;1.00;;
8038;SDS011;4062;49.844;8.120;2022-12-28T06:42:24;1.00;;;0.90;;
8038;SDS011;4062;49.844;8.120;2022-12-28T06:44:24;0.97;;;0.97;;
8038;SDS011;4062;49.844;8.120;2022-12-28T06:46:26;1.57;;;1.07;;
8038;SDS011;4062;49.844;8.120;2022-12-28T06:48:27;2.07;;;1.87;;
8038;SDS011;4062;49.844;8.120;2022-12-28T06:50:28;1.20;;;1.10;;
8038;SDS011;4062;49.844;8.120;2022-12-28T06:52:28;1.23;;;1.13;;
8038;SDS011;4062;49.844;8.120;2022-12-28T06:54:29;1.27;;;1.27;;
8038;SDS011;4062;49.844;8.120;2022-12-28T06:56:30;1.10;;;1.10;;
8038;SDS011;4062;49.844;8.120;2022-12-28T06:58:31;0.70;;;0.70;;
8038;SDS011;4062;49.844;8.120;2022-12-28T07:00:32;1.30;;;1.10;;
8038;SDS011;4062;49.844;8.120;2022-12-28T07:02:32;1.10;;;0.93;;
8038;SDS011;4062;49.844;8.120;2022-12-28T07:04:33;1.60;;;1.50;;
8038;SDS011;4062;49.844;8.120;2022-12-28T07:06:37;1.53;;;1.43;;
8038;SDS011;4062;49.844;8.120;2022-12-28T07:08:38;1.20;;;1.07;;
8038;SDS011;4062;49.844;8.120;2022-12-28T07:10:39;1.27;;;1.20;;
8038;SDS011;4062;49.844;8.120;2022-12-28T07:12:39;1.40;;;1.10;;
8038;SDS011;4062;49.844;8.120;2022-12-28T07:14:39;0.90;;;0.90;;
8038;SDS011;4062;49.844;8.120;2022-12-28T07:16:40;1.13;;;1.00;;
8038;SDS011;4062;49.844;8.120;2022-12-28T07:18:44;1.37;;;1.30;;
8038;SDS011;4062;49.844;8.120;2022-12-28T07:20:44;0.90;;;0.90;;
8038;SDS011;4062;49.844;8.120;2022-12-28T07:22:44;1.30;;;0.77;;
8038;SDS011;4062;49.844;8.120;2022-12-28T07:24:45;1.47;;;1.37;;
8038;SDS011;4062;49.844;8.120;2022-12-28T07:26:48;0.70;;;0.70;;
8038;SDS011;4062;49.844;8.120;2022-12-28T07:28:50;1.10;;;1.03;;
8038;SDS011;4062;49.844;8.120;2022-12-28T07:30:50;1.03;;;0.93;;
8038;SDS011;4062;49.844;8.120;2022-12-28T07:32:54;1.05;;;0.95;;
8038;SDS011;4062;49.844;8.120;2022-12-28T07:34:54;0.80;;;0.80;;
8038;SDS011;4062;49.844;8.120;2022-12-28T07:36:55;1.03;;;1.03;;
8038;SDS011;4062;49.844;8.120;2022-12-28T07:38:55;0.93;;;0.80;;
8038;SDS011;4062;49.844;8.120;2022-12-28T07:41:00;1.27;;;1.13;;
8038;SDS011;4062;49.844;8.120;2022-12-28T07:43:00;1.00;;;0.90;;
8038;SDS011;4062;49.844;8.120;2022-12-28T07:45:01;1.60;;;1.50;;
8038;SDS011;4062;49.844;8.120;2022-12-28T07:47:01;0.77;;;0.77;;
8038;SDS011;4062;49.844;8.120;2022-12-28T07:49:02;1.40;;;1.30;;
8038;SDS011;4062;49.844;8.120;2022-12-28T07:51:09;1.33;;;0.80;;
8038;SDS011;4062;49.844;8.120;2022-12-28T07:53:11;1.30;;;1.07;;
8038;SDS011;4062;49.844;8.120;2022-12-28T07:55:11;0.70;;;0.70;;
8038;SDS011;4062;49.844;8.120;2022-12-28T07:57:14;0.80;;;0.80;;
8038;SDS011;4062;49.844;8.120;2022-12-28T07:59:15;1.15;;;0.80;;
8038;SDS011;4062;49.844;8.120;2022-12-28T08:01:16;0.97;;;0.80;;
8038;SDS011;4062;49.844;8.120;2022-12-28T08:03:17;0.80;;;0.77;;
8038;SDS011;4062;49.844;8.120;2022-12-28T08:05:17;0.70;;;0.70;;
8038;SDS011;4062;49.844;8.120;2022-12-28T08:07:18;0.70;;;0.70;;
8038;SDS011;4062;49.844;8.120;2022-12-28T08:09:19;0.80;;;0.80;;
8038;SDS011;4062;49.844;8.120;2022-12-28T08:11:20;1.53;;;1.27;;
8038;SDS011;4062;49.844;8.120;2022-12-28T08:13:21;0.90;;;0.90;;
8038;SDS011;4062;49.844;8.120;2022-12-28T08:15:21;1.08;;;1.02;;
8038;SDS011;4062;49.844;8.120;2022-12-28T08:17:22;0.80;;;0.80;;
8038;SDS011;4062;49.844;8.120;2022-12-28T08:19:22;0.70;;;0.70;;
8038;SDS011;4062;49.844;8.120;2022-12-28T08:21:27;1.27;;;1.17;;
8038;SDS011;4062;49.844;8.120;2022-12-28T08:23:29;0.80;;;0.80;;
8038;SDS011;4062;49.844;8.120;2022-12-28T08:25:30;0.60;;;0.60;;
8038;SDS011;4062;49.844;8.120;2022-12-28T08:27:30;1.07;;;0.80;;
8038;SDS011;4062;49.844;8.120;2022-12-28T08:29:30;0.70;;;0.70;;
8038;SDS011;4062;49.844;8.120;2022-12-28T08:31:32;0.60;;;0.60;;
8038;SDS011;4062;49.844;8.120;2022-12-28T08:33:33;0.70;;;0.70;;
8038;SDS011;4062;49.844;8.120;2022-12-28T08:35:33;1.03;;;0.77;;
8038;SDS011;4062;49.844;8.120;2022-12-28T08:37:36;0.90;;;0.90;;
8038;SDS011;4062;49.844;8.120;2022-12-28T08:39:37;0.63;;;0.60;;
8038;SDS011;4062;49.844;8.120;2022-12-28T08:41:37;0.90;;;0.90;;
8038;SDS011;4062;49.844;8.120;2022-12-28T08:43:38;0.60;;;0.60;;
8038;SDS011;4062;49.844;8.120;2022-12-28T08:45:38;0.60;;;0.57;;
8038;SDS011;4062;49.844;8.120;2022-12-28T08:47:38;0.77;;;0.77;;
8038;SDS011;4062;49.844;8.120;2022-12-28T08:49:39;0.57;;;0.57;;
8038;SDS011;4062;49.844;8.120;2022-12-28T08:51:40;0.93;;;0.70;;
8038;SDS011;4062;49.844;8.120;2022-12-28T08:53:40;0.60;;;0.60;;
8038;SDS011;4062;49.844;8.120;2022-12-28T08:55:41;0.70;;;0.70;;
8038;SDS011;4062;49.844;8.120;2022-12-28T08:57:41;1.10;;;1.00;;
8038;SDS011;4062;49.844;8.120;2022-12-28T08:59:42;0.80;;;0.80;;
8038;SDS011;4062;49.844;8.120;2022-12-28T09:01:42;0.97;;;0.87;;
8038;SDS011;4062;49.844;8.120;2022-12-28T09:03:44;0.80;;;0.60;;
8038;SDS011;4062;49.844;8.120;2022-12-28T09:05:45;0.70;;;0.60;;
8038;SDS011;4062;49.844;8.120;2022-12-28T09:07:47;0.93;;;0.93;;
8038;SDS011;4062;49.844;8.120;2022-12-28T09:09:50;1.05;;;0.90;;
8038;SDS011;4062;49.844;8.120;2022-12-28T09:11:50;0.60;;;0.57;;
8038;SDS011;4062;49.844;8.120;2022-12-28T09:13:51;1.00;;;1.00;;
8038;SDS011;4062;49.844;8.120;2022-12-28T09:15:55;0.80;;;0.80;;
8038;SDS011;4062;49.844;8.120;2022-12-28T09:17:55;0.60;;;0.60;;
8038;SDS011;4062;49.844;8.120;2022-12-28T09:19:56;0.90;;;0.90;;
8038;SDS011;4062;49.844;8.120;2022-12-28T09:21:56;1.07;;;1.07;;
8038;SDS011;4062;49.844;8.120;2022-12-28T09:23:57;0.70;;;0.70;;
8038;SDS011;4062;49.844;8.120;2022-12-28T09:26:09;0.90;;;0.90;;
8038;SDS011;4062;49.844;8.120;2022-12-28T09:28:10;0.80;;;0.80;;
8038;SDS011;4062;49.844;8.120;2022-12-28T09:30:11;0.80;;;0.63;;
8038;SDS011;4062;49.844;8.120;2022-12-28T09:32:11;1.10;;;1.07;;
8038;SDS011;4062;49.844;8.120;2022-12-28T09:34:11;0.73;;;0.73;;
8038;SDS011;4062;49.844;8.120;2022-12-28T09:36:12;0.90;;;0.60;;
8038;SDS011;4062;49.844;8.120;2022-12-28T09:38:12;0.80;;;0.80;;
8038;SDS011;4062;49.844;8.120;2022-12-28T09:40:13;0.70;;;0.70;;
8038;SDS011;4062;49.844;8.120;2022-12-28T09:42:24;1.03;;;0.93;;
8038;SDS011;4062;49.844;8.120;2022-12-28T09:46:33;0.50;;;0.50;;
8038;SDS011;4062;49.844;8.120;2022-12-28T09:48:35;0.53;;;0.50;;
8038;SDS011;4062;49.844;8.120;2022-12-28T09:50:39;0.83;;;0.83;;
8038;SDS011;4062;49.844;8.120;2022-12-28T09:52:51;0.97;;;0.60;;
8038;SDS011;4062;49.844;8.120;2022-12-28T09:54:58;1.00;;;0.90;;
8038;SDS011;4062;49.844;8.120;2022-12-28T09:57:03;0.67;;;0.67;;
8038;SDS011;4062;49.844;8.120;2022-12-28T09:59:04;0.77;;;0.77;;
8038;SDS011;4062;49.844;8.120;2022-12-28T10:01:08;0.73;;;0.73;;
8038;SDS011;4062;49.844;8.120;2022-12-28T10:03:14;0.53;;;0.53;;
8038;SDS011;4062;49.844;8.120;2022-12-28T10:05:15;0.60;;;0.53;;
8038;SDS011;4062;49.844;8.120;2022-12-28T10:07:19;0.60;;;0.60;;
8038;SDS011;4062;49.844;8.120;2022-12-28T10:09:24;1.00;;;1.00;;
8038;SDS011;4062;49.844;8.120;2022-12-28T10:11:27;1.10;;;0.97;;
8038;SDS011;4062;49.844;8.120;2022-12-28T10:13:33;1.13;;;0.77;;
8038;SDS011;4062;49.844;8.120;2022-12-28T10:15:41;0.50;;;0.40;;
8038;SDS011;4062;49.844;8.120;2022-12-28T10:17:42;1.00;;;0.73;;
8038;SDS011;4062;49.844;8.120;2022-12-28T10:19:43;0.53;;;0.50;;
8038;SDS011;4062;49.844;8.120;2022-12-28T10:21:44;0.60;;;0.50;;
8038;SDS011;4062;49.844;8.120;2022-12-28T10:26:01;0.50;;;0.40;;
8038;SDS011;4062;49.844;8.120;2022-12-28T10:28:07;0.77;;;0.67;;
8038;SDS011;4062;49.844;8.120;2022-12-28T10:30:20;0.80;;;0.80;;
8038;SDS011;4062;49.844;8.120;2022-12-28T10:32:20;0.70;;;0.60;;
8038;SDS011;4062;49.844;8.120;2022-12-28T10:34:21;0.63;;;0.60;;
8038;SDS011;4062;49.844;8.120;2022-12-28T10:36:24;0.80;;;0.80;;
8038;SDS011;4062;49.844;8.120;2022-12-28T10:38:27;0.50;;;0.50;;
8038;SDS011;4062;49.844;8.120;2022-12-28T10:40:29;0.93;;;0.83;;
8038;SDS011;4062;49.844;8.120;2022-12-28T10:42:36;0.60;;;0.50;;
8038;SDS011;4062;49.844;8.120;2022-12-28T10:44:37;0.50;;;0.40;;
8038;SDS011;4062;49.844;8.120;2022-12-28T10:46:38;0.70;;;0.67;;
8038;SDS011;4062;49.844;8.120;2022-12-28T10:48:49;0.60;;;0.50;;
8038;SDS011;4062;49.844;8.120;2022-12-28T10:50:52;0.80;;;0.80;;
8038;SDS011;4062;49.844;8.120;2022-12-28T10:52:57;0.80;;;0.80;;
8038;SDS011;4062;49.844;8.120;2022-12-28T10:54:57;2.03;;;0.70;;
8038;SDS011;4062;49.844;8.120;2022-12-28T10:56:58;0.88;;;0.88;;
8038;SDS011;4062;49.844;8.120;2022-12-28T11:03:20;0.70;;;0.70;;
8038;SDS011;4062;49.844;8.120;2022-12-28T11:05:23;0.50;;;0.43;;
8038;SDS011;4062;49.844;8.120;2022-12-28T11:07:34;0.80;;;0.80;;
8038;SDS011;4062;49.844;8.120;2022-12-28T11:09:37;0.50;;;0.50;;
8038;SDS011;4062;49.844;8.120;2022-12-28T11:11:38;0.90;;;0.90;;
8038;SDS011;4062;49.844;8.120;2022-12-28T11:13:39;1.20;;;1.20;;
8038;SDS011;4062;49.844;8.120;2022-12-28T11:15:39;0.80;;;0.70;;
8038;SDS011;4062;49.844;8.120;2022-12-28T11:17:40;0.50;;;0.50;;
8038;SDS011;4062;49.844;8.120;2022-12-28T11:19:40;0.50;;;0.40;;
8038;SDS011;4062;49.844;8.120;2022-12-28T11:21:47;0.60;;;0.60;;
8038;SDS011;4062;49.844;8.120;2022-12-28T11:23:48;0.50;;;0.40;;
8038;SDS011;4062;49.844;8.120;2022-12-28T11:25:49;0.70;;;0.70;;
8038;SDS011;4062;49.844;8.120;2022-12-28T11:27:50;0.60;;;0.60;;
8038;SDS011;4062;49.844;8.120;2022-12-28T11:29:52;0.60;;;0.60;;
8038;SDS011;4062;49.844;8.120;2022-12-28T11:31:55;0.50;;;0.50;;
8038;SDS011;4062;49.844;8.120;2022-12-28T11:34:00;0.60;;;0.50;;
8038;SDS011;4062;49.844;8.120;2022-12-28T11:36:04;0.60;;;0.50;;
8038;SDS011;4062;49.844;8.120;2022-12-28T11:38:05;0.90;;;0.80;;
8038;SDS011;4062;49.844;8.120;2022-12-28T11:40:08;0.80;;;0.40;;
8038;SDS011;4062;49.844;8.120;2022-12-28T11:42:09;0.57;;;0.57;;
8038;SDS011;4062;49.844;8.120;2022-12-28T11:44:25;0.73;;;0.73;;
8038;SDS011;4062;49.844;8.120;2022-12-28T11:46:40;0.80;;;0.63;;
8038;SDS011;4062;49.844;8.120;2022-12-28T11:48:47;0.50;;;0.47;;
8038;SDS011;4062;49.844;8.120;2022-12-28T11:50:50;0.80;;;0.80;;
8038;SDS011;4062;49.844;8.120;2022-12-28T11:52:50;0.60;;;0.40;;
8038;SDS011;4062;49.844;8.120;2022-12-28T11:56:58;0.70;;;0.70;;
8038;SDS011;4062;49.844;8.120;2022-12-28T12:00:59;0.60;;;0.60;;
8038;SDS011;4062;49.844;8.120;2022-12-28T12:03:02;0.70;;;0.70;;
8038;SDS011;4062;49.844;8.120;2022-12-28T12:05:45;0.63;;;0.43;;
8038;SDS011;4062;49.844;8.120;2022-12-28T12:07:39;0.60;;;0.40;;
8038;SDS011;4062;49.844;8.120;2022-12-28T12:09:44;0.50;;;0.50;;
8038;SDS011;4062;49.844;8.120;2022-12-28T12:11:45;0.52;;;0.50;;
8038;SDS011;4062;49.844;8.120;2022-12-28T12:13:47;0.73;;;0.50;;
8038;SDS011;4062;49.844;8.120;2022-12-28T12:15:49;0.70;;;0.60;;
8038;SDS011;4062;49.844;8.120;2022-12-28T12:17:51;0.50;;;0.40;;
8038;SDS011;4062;49.844;8.120;2022-12-28T12:19:55;0.60;;;0.40;;
8038;SDS011;4062;49.844;8.120;2022-12-28T12:22:05;0.52;;;0.50;;
8038;SDS011;4062;49.844;8.120;2022-12-28T12:24:12;0.60;;;0.50;;
8038;SDS011;4062;49.844;8.120;2022-12-28T12:26:28;0.60;;;0.60;;
8038;SDS011;4062;49.844;8.120;2022-12-28T12:28:32;0.47;;;0.33;;
8038;SDS011;4062;49.844;8.120;2022-12-28T12:30:33;0.90;;;0.70;;
8038;SDS011;4062;49.844;8.120;2022-12-28T12:32:41;0.55;;;0.55;;
8038;SDS011;4062;49.844;8.120;2022-12-28T12:34:43;0.43;;;0.40;;
8038;SDS011;4062;49.844;8.120;2022-12-28T12:45:34;0.77;;;0.50;;
8038;SDS011;4062;49.844;8.120;2022-12-28T12:49:55;0.60;;;0.60;;
8038;SDS011;4062;49.844;8.120;2022-12-28T12:54:16;0.50;;;0.43;;
8038;SDS011;4062;49.844;8.120;2022-12-28T12:56:27;0.77;;;0.73;;
8038;SDS011;4062;49.844;8.120;2022-12-28T13:05:21;0.80;;;0.80;;
8038;SDS011;4062;49.844;8.120;2022-12-28T13:07:24;0.50;;;0.40;;
8038;SDS011;4062;49.844;8.120;2022-12-28T13:09:26;0.50;;;0.43;;
8038;SDS011;4062;49.844;8.120;2022-12-28T13:11:28;1.07;;;0.57;;
8038;SDS011;4062;49.844;8.120;2022-12-28T13:13:31;0.60;;;0.50;;
8038;SDS011;4062;49.844;8.120;2022-12-28T13:15:32;0.60;;;0.50;;
8038;SDS011;4062;49.844;8.120;2022-12-28T13:17:33;0.63;;;0.40;;
8038;SDS011;4062;49.844;8.120;2022-12-28T13:19:34;0.70;;;0.70;;
8038;SDS011;4062;49.844;8.120;2022-12-28T13:21:39;0.47;;;0.40;;
8038;SDS011;4062;49.844;8.120;2022-12-28T13:23:41;0.60;;;0.50;;
8038;SDS011;4062;49.844;8.120;2022-12-28T13:25:43;0.60;;;0.60;;
8038;SDS011;4062;49.844;8.120;2022-12-28T13:27:45;0.63;;;0.53;;
8038;SDS011;4062;49.844;8.120;2022-12-28T13:29:52;0.50;;;0.40;;
8038;SDS011;4062;49.844;8.120;2022-12-28T13:31:53;0.50;;;0.40;;
8038;SDS011;4062;49.844;8.120;2022-12-28T13:33:57;0.50;;;0.40;;